Time;durP1;ratioP1;P1;durP2;ratioP2;P2;SDS_P1;SDS_P2;PMS_P1;PMS_P2;Temp;Humidity;BMP_temperature;BMP_pressure;BME280_temperature;BME280_humidity;BME280_pressure;Samples;Min_cycle;Max_cycle;Signal;HPM_P1;HPM_P2
2023/05/19 00:01:59;;;;;;;4.53;3.80;;;11.90;99.90;;;;;;5099000;28;20464;-81
2023/05/19 00:04:25;;;;;;;5.45;4.80;;;11.80;99.90;;;;;;5109777;28;20439;-80
2023/05/19 00:06:53;;;;;;;4.80;3.92;;;11.90;99.90;;;;;;5095486;28;20392;-80
2023/05/19 00:09:19;;;;;;;6.38;4.10;;;11.90;99.90;;;;;;5096163;28;20391;-80
2023/05/19 00:11:45;;;;;;;4.80;4.30;;;11.80;99.90;;;;;;5113349;28;20382;-79
2023/05/19 00:14:10;;;;;;;4.72;3.90;;;11.80;99.90;;;;;;5096274;28;20440;-79
2023/05/19 00:16:37;;;;;;;5.40;4.20;;;11.80;99.90;;;;;;5095493;28;20410;-80
2023/05/19 00:19:04;;;;;;;6.00;3.80;;;11.90;99.90;;;;;;5067488;28;20408;-84
2023/05/19 00:21:30;;;;;;;6.20;4.25;;;11.80;99.90;;;;;;5067152;28;20390;-82
2023/05/19 00:23:57;;;;;;;6.10;4.10;;;11.80;99.90;;;;;;5094272;28;20424;-81
2023/05/19 00:26:23;;;;;;;5.20;4.10;;;11.80;99.90;;;;;;5108400;28;20378;-83
2023/05/19 00:28:49;;;;;;;4.22;3.80;;;11.70;99.90;;;;;;5091831;28;20371;-83
2023/05/19 00:31:15;;;;;;;4.80;3.80;;;11.80;99.90;;;;;;5091326;28;20469;-83
2023/05/19 00:33:40;;;;;;;4.68;4.28;;;11.70;99.90;;;;;;5094296;28;20455;-82
2023/05/19 00:36:06;;;;;;;4.47;3.80;;;11.80;99.90;;;;;;5075488;28;20418;-82
2023/05/19 00:38:34;;;;;;;5.93;3.90;;;11.80;99.90;;;;;;5092664;28;20386;-82
2023/05/19 00:41:00;;;;;;;5.75;4.60;;;11.80;99.90;;;;;;5113174;28;20449;-84
2023/05/19 00:43:26;;;;;;;5.38;3.55;;;11.80;99.90;;;;;;5113155;28;20389;-82
2023/05/19 00:45:52;;;;;;;4.63;3.65;;;11.70;99.90;;;;;;5094059;28;20393;-81
2023/05/19 00:48:17;;;;;;;4.30;3.90;;;11.80;99.90;;;;;;5095182;28;20387;-83
2023/05/19 00:50:44;;;;;;;5.45;3.60;;;11.70;99.90;;;;;;5073067;28;20490;-83
2023/05/19 00:53:10;;;;;;;4.28;3.50;;;11.70;99.90;;;;;;5074652;28;20384;-83
2023/05/19 00:55:39;;;;;;;5.40;4.10;;;11.70;99.90;;;;;;5074726;28;20383;-84
2023/05/19 00:58:05;;;;;;;5.35;3.90;;;11.60;99.90;;;;;;5116089;28;20373;-80
2023/05/19 01:00:31;;;;;;;4.15;3.70;;;11.70;99.90;;;;;;5101573;28;20457;-81
2023/05/19 01:02:57;;;;;;;4.45;4.05;;;11.70;99.90;;;;;;5099488;28;20410;-83
2023/05/19 01:05:22;;;;;;;5.77;3.60;;;11.70;99.90;;;;;;5106849;28;20389;-82
2023/05/19 01:07:52;;;;;;;4.60;3.80;;;11.60;99.90;;;;;;5094846;28;20953;-83
2023/05/19 01:10:18;;;;;;;5.22;4.60;;;11.60;99.90;;;;;;5119474;28;20402;-81
2023/05/19 01:12:44;;;;;;;6.00;4.10;;;11.60;99.90;;;;;;5102381;28;20390;-81
2023/05/19 01:15:10;;;;;;;6.60;4.30;;;11.50;99.90;;;;;;5119384;28;20443;-81
2023/05/19 01:17:45;;;;;;;5.10;4.07;;;11.50;99.90;;;;;;5104070;28;20400;-82
2023/05/19 01:20:40;;;;;;;5.30;3.95;;;11.50;99.90;;;;;;5102799;28;20400;-80
2023/05/19 01:23:20;;;;;;;6.30;4.00;;;11.50;99.90;;;;;;5093261;28;20401;-83
2023/05/19 01:26:30;;;;;;;5.20;3.70;;;11.50;99.90;;;;;;5097033;28;20398;-83
2023/05/19 01:29:08;;;;;;;5.47;3.90;;;11.50;99.90;;;;;;5115465;28;20374;-83
2023/05/19 01:31:35;;;;;;;6.15;4.68;;;11.50;99.90;;;;;;5113963;28;20393;-82
2023/05/19 01:34:03;;;;;;;7.97;4.60;;;11.50;99.90;;;;;;5113815;28;20396;-81
2023/05/19 01:36:31;;;;;;;6.55;4.07;;;11.40;99.90;;;;;;5094218;28;20382;-84
2023/05/19 01:38:58;;;;;;;5.32;4.07;;;11.40;99.90;;;;;;5113396;28;20378;-83
2023/05/19 01:41:27;;;;;;;4.75;4.18;;;11.30;99.90;;;;;;5101865;28;20374;-80
2023/05/19 01:43:53;;;;;;;6.40;3.90;;;11.20;99.90;;;;;;5102292;28;20413;-80
2023/05/19 01:46:20;;;;;;;4.50;4.10;;;11.30;99.90;;;;;;5100518;28;20374;-79
2023/05/19 01:48:46;;;;;;;4.80;3.90;;;11.20;99.90;;;;;;5118064;28;20398;-83
2023/05/19 01:51:12;;;;;;;5.85;4.05;;;11.20;99.90;;;;;;5110614;28;20501;-81
2023/05/19 01:53:37;;;;;;;4.32;3.80;;;11.20;99.90;;;;;;5092112;28;20397;-83
2023/05/19 01:56:05;;;;;;;5.47;3.80;;;11.10;99.90;;;;;;5108857;28;20386;-82
2023/05/19 01:58:36;;;;;;;6.03;4.30;;;11.10;99.90;;;;;;5109101;28;20392;-82
2023/05/19 02:01:23;;;;;;;4.30;3.70;;;11.10;99.90;;;;;;5110590;28;20463;-82
2023/05/19 02:04:03;;;;;;;5.00;3.90;;;11.00;99.90;;;;;;5112077;28;20385;-82
2023/05/19 02:06:45;;;;;;;4.60;3.83;;;11.10;99.90;;;;;;5090907;28;20397;-83
2023/05/19 02:09:23;;;;;;;4.28;3.72;;;11.00;99.90;;;;;;5081478;28;20399;-81
2023/05/19 02:11:59;;;;;;;5.05;3.80;;;11.00;99.90;;;;;;5087617;28;20837;-82
2023/05/19 02:14:49;;;;;;;4.70;4.20;;;11.00;99.90;;;;;;5072591;28;20389;-82
2023/05/19 02:17:16;;;;;;;5.78;3.90;;;10.90;99.90;;;;;;5088675;28;20428;-83
2023/05/19 02:19:43;;;;;;;5.63;3.92;;;11.00;99.90;;;;;;5107388;28;20385;-83
2023/05/19 02:22:08;;;;;;;5.05;4.55;;;11.00;99.90;;;;;;5107236;28;20394;-83
2023/05/19 02:24:35;;;;;;;4.60;3.80;;;10.90;99.90;;;;;;5102356;28;20440;-81
2023/05/19 02:27:01;;;;;;;5.22;4.57;;;10.90;99.90;;;;;;5076127;28;20417;-81
2023/05/19 02:29:27;;;;;;;4.40;4.00;;;10.90;99.90;;;;;;5087295;28;20768;-83
2023/05/19 02:31:52;;;;;;;7.13;4.53;;;10.90;99.90;;;;;;5088978;28;20378;-83
2023/05/19 02:34:18;;;;;;;5.35;4.65;;;10.90;99.90;;;;;;5100972;28;20455;-82
2023/05/19 02:36:43;;;;;;;6.10;4.60;;;10.90;99.90;;;;;;5085632;28;20395;-81
2023/05/19 02:39:09;;;;;;;8.23;4.83;;;10.80;99.90;;;;;;5068198;28;20521;-83
2023/05/19 02:41:36;;;;;;;4.90;4.40;;;10.80;99.90;;;;;;5085847;28;20384;-82
2023/05/19 02:44:01;;;;;;;5.38;4.30;;;10.70;99.90;;;;;;5074354;28;20386;-81
2023/05/19 02:46:27;;;;;;;5.70;4.50;;;10.80;99.90;;;;;;5087516;28;20935;-82
2023/05/19 02:48:52;;;;;;;6.55;4.43;;;10.70;99.90;;;;;;5107304;28;20412;-82
2023/05/19 02:51:18;;;;;;;5.15;4.43;;;10.70;99.90;;;;;;5086025;28;20421;-81
2023/05/19 02:53:43;;;;;;;8.13;4.40;;;10.70;99.90;;;;;;5082249;28;20419;-83
2023/05/19 02:56:09;;;;;;;5.50;4.50;;;10.60;99.90;;;;;;5065712;28;20750;-81
2023/05/19 02:58:34;;;;;;;5.20;4.70;;;10.60;99.90;;;;;;5093809;28;20367;-82
2023/05/19 03:01:00;;;;;;;5.47;4.50;;;10.70;99.90;;;;;;5098010;28;20752;-83
2023/05/19 03:03:25;;;;;;;4.77;4.27;;;10.50;99.90;;;;;;5109933;28;20392;-82
2023/05/19 03:05:52;;;;;;;5.70;3.80;;;10.60;99.90;;;;;;5088990;28;20390;-83
2023/05/19 03:08:18;;;;;;;5.90;3.90;;;10.50;99.90;;;;;;5087959;28;20384;-83
2023/05/19 03:10:45;;;;;;;3.90;3.47;;;10.60;99.90;;;;;;5071674;28;20501;-83
2023/05/19 03:13:11;;;;;;;4.57;3.58;;;10.50;99.90;;;;;;5107955;28;20856;-83
2023/05/19 03:15:36;;;;;;;5.70;3.75;;;10.60;99.90;;;;;;5106223;28;20409;-82
2023/05/19 03:18:02;;;;;;;3.97;3.57;;;10.50;99.90;;;;;;5087574;28;20888;-83
2023/05/19 03:20:29;;;;;;;5.70;3.83;;;10.50;99.90;;;;;;5078477;28;20671;-82
2023/05/19 03:22:54;;;;;;;6.60;4.10;;;10.50;99.90;;;;;;5086916;28;20411;-82
2023/05/19 03:25:20;;;;;;;5.47;3.57;;;10.60;99.90;;;;;;5069173;28;20789;-83
2023/05/19 03:27:46;;;;;;;9.00;4.43;;;10.60;99.90;;;;;;5085182;28;20380;-82
2023/05/19 03:30:12;;;;;;;7.63;4.40;;;10.60;99.90;;;;;;5091071;28;20918;-83
2023/05/19 03:32:37;;;;;;;5.20;3.50;;;10.50;99.90;;;;;;5088187;28;20733;-83
2023/05/19 03:35:04;;;;;;;5.00;3.40;;;10.40;99.90;;;;;;5088537;28;20393;-81
2023/05/19 03:37:31;;;;;;;4.65;3.63;;;10.40;99.90;;;;;;5105921;28;20378;-83
2023/05/19 03:39:57;;;;;;;5.78;4.25;;;10.50;99.90;;;;;;5092302;28;20403;-83
2023/05/19 03:42:23;;;;;;;4.13;3.55;;;10.40;99.90;;;;;;5067017;28;20787;-80
2023/05/19 03:44:48;;;;;;;5.32;4.20;;;10.40;99.90;;;;;;5066996;28;20387;-82
2023/05/19 03:47:14;;;;;;;5.20;3.77;;;10.40;99.90;;;;;;5067850;28;20482;-83
2023/05/19 03:49:40;;;;;;;5.50;3.80;;;10.30;99.90;;;;;;5078576;28;20433;-83
2023/05/19 03:52:05;;;;;;;4.30;3.67;;;10.30;99.90;;;;;;5087168;28;20389;-82
2023/05/19 03:54:31;;;;;;;4.00;3.60;;;10.40;99.90;;;;;;5073431;28;20750;-83
2023/05/19 03:56:57;;;;;;;4.97;3.75;;;10.40;99.90;;;;;;5066620;28;20396;-83
2023/05/19 03:59:23;;;;;;;5.35;4.30;;;10.40;99.90;;;;;;5065165;28;20777;-83
2023/05/19 04:01:49;;;;;;;6.80;5.10;;;10.30;99.90;;;;;;5083333;28;20375;-82
2023/05/19 04:04:15;;;;;;;5.88;4.38;;;10.30;99.90;;;;;;5072323;28;20396;-82
2023/05/19 04:06:40;;;;;;;6.53;4.30;;;10.20;99.90;;;;;;5068151;28;20896;-81
2023/05/19 04:11:32;;;;;;;6.70;4.87;;;10.30;99.90;;;;;;5131098;22;20432;-81
2023/05/19 04:13:58;;;;;;;5.43;4.30;;;10.20;99.90;;;;;;5124487;28;20356;-80
2023/05/19 04:16:23;;;;;;;4.87;3.90;;;10.20;99.90;;;;;;5113661;28;20465;-80
2023/05/19 04:18:49;;;;;;;6.53;4.20;;;10.20;99.90;;;;;;5118289;28;20400;-81
2023/05/19 04:21:14;;;;;;;6.50;4.10;;;10.20;99.90;;;;;;5058516;28;20387;-81
2023/05/19 04:23:40;;;;;;;5.80;3.90;;;10.20;99.90;;;;;;5073517;28;20388;-81
2023/05/19 04:26:06;;;;;;;5.30;4.23;;;10.20;99.90;;;;;;5072866;28;20374;-81
2023/05/19 04:28:34;;;;;;;7.20;4.60;;;10.20;99.90;;;;;;5067485;28;20393;-81
2023/05/19 04:31:00;;;;;;;5.47;4.22;;;10.20;99.90;;;;;;5069891;28;20461;-81
2023/05/19 04:33:28;;;;;;;5.63;3.90;;;10.10;99.90;;;;;;5074515;28;20421;-81
2023/05/19 04:35:53;;;;;;;4.65;3.97;;;10.10;99.90;;;;;;5073387;28;20881;-81
2023/05/19 04:38:20;;;;;;;5.30;3.90;;;10.10;99.90;;;;;;5055253;28;20388;-81
2023/05/19 04:40:48;;;;;;;4.57;3.83;;;10.20;99.90;;;;;;5059475;28;20390;-81
2023/05/19 04:43:14;;;;;;;4.43;3.50;;;10.20;99.90;;;;;;5074438;28;20390;-80
2023/05/19 04:45:41;;;;;;;4.20;3.80;;;10.20;99.90;;;;;;5092780;28;20389;-81
2023/05/19 04:48:07;;;;;;;4.57;3.80;;;10.30;99.90;;;;;;5075482;28;20432;-81
2023/05/19 04:50:34;;;;;;;5.25;3.70;;;10.20;99.90;;;;;;5093165;28;20512;-81
2023/05/19 04:52:59;;;;;;;4.72;3.80;;;10.30;99.90;;;;;;5091992;28;20390;-81
2023/05/19 04:55:25;;;;;;;5.90;4.50;;;10.20;99.90;;;;;;5093273;28;20890;-80
2023/05/19 04:57:50;;;;;;;4.30;3.90;;;10.30;99.90;;;;;;5093181;28;20385;-80
2023/05/19 05:00:17;;;;;;;6.00;3.80;;;10.30;99.90;;;;;;5093199;28;20386;-81
2023/05/19 05:02:43;;;;;;;5.20;4.00;;;10.30;99.90;;;;;;5093855;28;20820;-80
2023/05/19 05:05:08;;;;;;;6.47;4.10;;;10.40;99.90;;;;;;5075355;28;20393;-81
2023/05/19 05:07:34;;;;;;;6.05;3.92;;;10.40;99.90;;;;;;5075085;28;20390;-81
2023/05/19 05:10:00;;;;;;;7.55;3.90;;;10.40;99.90;;;;;;5060806;28;20407;-81
2023/05/19 05:12:26;;;;;;;4.75;3.47;;;10.40;99.90;;;;;;5054854;28;20905;-82
2023/05/19 05:14:52;;;;;;;5.00;3.58;;;10.40;99.90;;;;;;5054923;28;20395;-81
2023/05/19 05:17:17;;;;;;;4.70;4.20;;;10.40;99.90;;;;;;5059624;28;20393;-81
2023/05/19 05:19:43;;;;;;;4.72;3.63;;;10.40;99.90;;;;;;5077326;28;20378;-82
2023/05/19 05:22:09;;;;;;;4.13;3.50;;;10.50;99.90;;;;;;5098567;28;20389;-81
2023/05/19 05:24:35;;;;;;;4.10;3.70;;;10.50;99.90;;;;;;5098578;28;20755;-82
2023/05/19 05:27:00;;;;;;;5.73;4.10;;;10.60;99.90;;;;;;5093806;28;20424;-82
2023/05/19 05:29:26;;;;;;;4.30;3.90;;;10.70;99.90;;;;;;5095420;28;20404;-81
2023/05/19 05:31:51;;;;;;;8.73;5.20;;;10.60;99.90;;;;;;5095152;28;20398;-81
2023/05/19 05:34:17;;;;;;;4.30;3.90;;;10.70;99.90;;;;;;5096157;28;20418;-82
2023/05/19 05:36:43;;;;;;;6.13;3.90;;;10.70;99.90;;;;;;5095282;28;20744;-82
2023/05/19 05:39:08;;;;;;;5.50;3.80;;;10.70;99.90;;;;;;5081229;28;20474;-82
2023/05/19 05:41:34;;;;;;;6.60;4.17;;;10.80;99.90;;;;;;5096188;28;20456;-82
2023/05/19 05:44:03;;;;;;;5.65;3.97;;;10.80;99.90;;;;;;5094863;28;20394;-82
2023/05/19 05:46:29;;;;;;;4.72;3.88;;;10.80;99.90;;;;;;5095487;28;20386;-82
2023/05/19 05:48:55;;;;;;;5.45;3.92;;;10.90;99.90;;;;;;5097706;28;20378;-82
2023/05/19 05:51:23;;;;;;;4.90;4.30;;;10.80;99.90;;;;;;5104331;28;20456;-82
2023/05/19 05:53:52;;;;;;;5.77;3.90;;;10.80;99.90;;;;;;5097131;28;20386;-82
2023/05/19 05:56:19;;;;;;;4.60;4.10;;;10.90;99.90;;;;;;5077463;28;20888;-82
2023/05/19 05:58:45;;;;;;;4.68;4.20;;;11.00;99.90;;;;;;5097299;28;20394;-81
2023/05/19 06:01:10;;;;;;;7.47;3.93;;;11.00;99.90;;;;;;5098286;28;20386;-83
2023/05/19 06:03:43;;;;;;;5.70;3.80;;;11.00;99.90;;;;;;5096448;28;20401;-80
2023/05/19 06:06:12;;;;;;;5.78;4.15;;;11.10;99.90;;;;;;5057412;28;20392;-80
2023/05/19 06:08:38;;;;;;;6.80;4.53;;;11.20;99.90;;;;;;5074818;28;20469;-80
2023/05/19 06:11:07;;;;;;;5.22;4.30;;;11.30;99.90;;;;;;5095181;28;20506;-81
2023/05/19 06:13:34;;;;;;;6.93;4.28;;;11.20;99.90;;;;;;5077763;28;20386;-81
2023/05/19 06:15:59;;;;;;;8.30;4.45;;;11.30;99.90;;;;;;5076383;28;20386;-81
2023/05/19 06:18:25;;;;;;;7.25;4.55;;;11.30;99.90;;;;;;5095415;28;20374;-80
2023/05/19 06:20:50;;;;;;;4.13;3.72;;;11.30;99.90;;;;;;5095162;28;20398;-81
2023/05/19 06:23:16;;;;;;;5.40;4.10;;;11.30;99.90;;;;;;5076482;28;20390;-81
2023/05/19 06:25:41;;;;;;;6.50;4.10;;;11.40;99.90;;;;;;5076278;28;20748;-80
2023/05/19 06:28:07;;;;;;;4.50;3.90;;;11.40;99.90;;;;;;5094983;28;20386;-80
2023/05/19 06:30:32;;;;;;;5.30;4.18;;;11.50;99.90;;;;;;5094002;28;20489;-81
2023/05/19 06:32:58;;;;;;;5.10;3.97;;;11.70;99.90;;;;;;5096222;28;20410;-81
2023/05/19 06:35:24;;;;;;;8.10;4.20;;;11.80;99.90;;;;;;5080515;28;20386;-81
2023/05/19 06:37:49;;;;;;;5.72;3.80;;;11.60;99.90;;;;;;5097311;28;20740;-81
2023/05/19 06:40:15;;;;;;;5.03;4.03;;;11.50;99.90;;;;;;5079502;28;20432;-81
2023/05/19 06:42:41;;;;;;;5.80;3.90;;;11.60;99.90;;;;;;5108070;28;20405;-81
2023/05/19 06:45:07;;;;;;;5.38;3.60;;;11.60;99.90;;;;;;5106191;28;20876;-81
2023/05/19 06:47:32;;;;;;;5.57;4.60;;;11.70;99.90;;;;;;5094806;28;20449;-81
2023/05/19 06:49:58;;;;;;;8.05;4.00;;;11.70;99.90;;;;;;5094693;28;20452;-81
2023/05/19 06:52:23;;;;;;;5.17;3.90;;;11.70;99.90;;;;;;5094351;28;20474;-81
2023/05/19 06:54:49;;;;;;;7.03;3.80;;;11.60;99.90;;;;;;5095294;28;20366;-81
2023/05/19 06:57:15;;;;;;;6.87;4.17;;;11.50;99.90;;;;;;5094790;28;20473;-80
2023/05/19 06:59:42;;;;;;;6.33;3.60;;;11.60;99.90;;;;;;5094213;28;20398;-81
2023/05/19 07:02:08;;;;;;;6.32;3.53;;;11.80;99.90;;;;;;5076975;28;20467;-81
2023/05/19 07:04:34;;;;;;;5.20;3.85;;;11.90;99.90;;;;;;5076917;28;20437;-81
2023/05/19 07:06:59;;;;;;;5.32;4.20;;;11.90;99.90;;;;;;5095618;28;20393;-81
2023/05/19 07:09:25;;;;;;;4.80;3.70;;;11.90;99.90;;;;;;5062627;28;20399;-81
2023/05/19 07:11:50;;;;;;;4.38;3.90;;;11.80;99.90;;;;;;5056595;28;20425;-80
2023/05/19 07:14:16;;;;;;;5.37;4.00;;;12.00;99.90;;;;;;5056347;28;20407;-81
2023/05/19 07:16:42;;;;;;;4.10;3.57;;;12.20;99.90;;;;;;5069344;28;20760;-81
2023/05/19 07:19:07;;;;;;;5.85;3.95;;;12.30;99.90;;;;;;5076326;28;20381;-81
2023/05/19 07:21:33;;;;;;;5.53;3.33;;;12.30;99.90;;;;;;5094162;28;20555;-81
2023/05/19 07:23:58;;;;;;;6.00;3.92;;;12.30;99.90;;;;;;5077658;28;20424;-81
2023/05/19 07:26:25;;;;;;;5.60;3.40;;;12.40;99.90;;;;;;5055555;28;20387;-80
2023/05/19 07:28:50;;;;;;;4.57;3.60;;;12.50;99.90;;;;;;5069239;28;20402;-81
2023/05/19 07:31:16;;;;;;;5.13;3.70;;;12.60;99.90;;;;;;5093106;28;20920;-81
2023/05/19 07:33:41;;;;;;;6.28;3.50;;;12.80;99.90;;;;;;5074976;28;20446;-81
2023/05/19 07:36:07;;;;;;;5.17;3.73;;;12.80;99.90;;;;;;5093427;28;20474;-81
2023/05/19 07:38:33;;;;;;;4.23;3.10;;;12.80;99.90;;;;;;5074384;28;20451;-80
2023/05/19 07:41:00;;;;;;;5.30;3.40;;;12.90;99.90;;;;;;5074240;28;20453;-81
2023/05/19 07:43:25;;;;;;;5.43;3.10;;;12.90;99.90;;;;;;5084245;28;20824;-81
2023/05/19 07:45:52;;;;;;;6.93;3.23;;;13.00;99.90;;;;;;5061511;28;20396;-81
2023/05/19 07:48:21;;;;;;;4.72;3.50;;;13.20;99.90;;;;;;5056966;28;20878;-80
2023/05/19 07:50:46;;;;;;;4.00;2.88;;;13.10;99.90;;;;;;5056385;28;20941;-81
2023/05/19 07:53:12;;;;;;;3.50;2.80;;;13.10;99.60;;;;;;5057749;28;20413;-81
2023/05/19 07:55:38;;;;;;;5.65;3.22;;;13.40;89.60;;;;;;5058230;28;20387;-82
2023/05/19 07:58:03;;;;;;;3.70;3.30;;;13.60;99.80;;;;;;5059836;28;20397;-81
2023/05/19 08:00:29;;;;;;;4.93;2.80;;;13.70;99.20;;;;;;5065247;28;20398;-81
2023/05/19 08:02:55;;;;;;;4.93;2.97;;;13.80;58.10;;;;;;5092628;28;20752;-82
2023/05/19 08:05:21;;;;;;;4.82;2.80;;;13.80;99.90;;;;;;5086396;28;20863;-81
2023/05/19 08:07:47;;;;;;;3.63;2.70;;;13.80;92.20;;;;;;5075783;28;20401;-82
2023/05/19 08:10:12;;;;;;;5.67;3.30;;;13.90;74.30;;;;;;5092114;28;20413;-81
2023/05/19 08:12:38;;;;;;;3.70;2.70;;;14.10;56.40;;;;;;5093909;28;20661;-82
2023/05/19 08:15:04;;;;;;;3.83;2.90;;;14.00;56.90;;;;;;5092228;28;20489;-81
2023/05/19 08:17:29;;;;;;;3.58;2.83;;;14.20;34.60;;;;;;5093254;28;20434;-82
2023/05/19 08:19:55;;;;;;;5.55;3.08;;;14.30;46.00;;;;;;5077743;28;20386;-83
2023/05/19 08:22:20;;;;;;;4.40;2.90;;;14.40;53.80;;;;;;5108668;28;20378;-81
2023/05/19 08:24:48;;;;;;;3.87;2.57;;;14.40;17.60;;;;;;5093521;28;20413;-81
2023/05/19 08:27:14;;;;;;;2.40;2.10;;;14.50;45.50;;;;;;5106505;28;20384;-83
2023/05/19 08:29:39;;;;;;;3.53;2.70;;;14.70;43.90;;;;;;5078500;28;20469;-83
2023/05/19 08:32:05;;;;;;;2.97;2.40;;;15.10;21.60;;;;;;5097373;28;20864;-81
2023/05/19 08:34:31;;;;;;;3.90;2.40;;;14.80;13.50;;;;;;5095716;28;20382;-81
2023/05/19 08:36:58;;;;;;;3.33;2.60;;;14.90;2.30;;;;;;5075373;28;20869;-81
2023/05/19 08:39:25;;;;;;;4.90;2.50;;;14.90;3.00;;;;;;5075479;28;20397;-82
2023/05/19 08:41:54;;;;;;;3.90;2.40;;;15.00;6.90;;;;;;5074969;28;20420;-81
2023/05/19 08:44:21;;;;;;;5.10;3.00;;;15.10;10.70;;;;;;5094005;28;20468;-81
2023/05/19 08:46:46;;;;;;;3.13;2.40;;;15.10;18.30;;;;;;5092369;28;20807;-81
2023/05/19 08:49:14;;;;;;;3.30;2.25;;;14.90;5.10;;;;;;5070765;28;20382;-82
2023/05/19 08:52:10;;;;;;;2.92;2.60;;;15.10;8.50;;;;;;5087190;28;20409;-82
2023/05/19 08:54:44;;;;;;;2.40;2.20;;;15.00;8.40;;;;;;5091279;28;20396;-81
2023/05/19 08:57:10;;;;;;;2.50;2.30;;;15.40;1.00;;;;;;5101829;28;20377;-81
2023/05/19 08:59:36;;;;;;;2.47;2.23;;;15.60;1.00;;;;;;5105484;28;20441;-82
2023/05/19 09:02:03;;;;;;;5.00;2.30;;;15.80;1.00;;;;;;5095107;28;20393;-82
2023/05/19 09:04:29;;;;;;;2.50;2.30;;;15.70;1.00;;;;;;5089312;28;20443;-82
2023/05/19 09:06:55;;;;;;;3.30;2.20;;;15.70;1.00;;;;;;5096798;28;20419;-82
2023/05/19 09:09:21;;;;;;;2.40;2.20;;;15.90;1.00;;;;;;5094837;28;20387;-81
2023/05/19 09:11:46;;;;;;;3.87;2.30;;;15.50;1.00;;;;;;5102752;28;20408;-82
2023/05/19 09:14:12;;;;;;;3.22;2.30;;;15.50;1.00;;;;;;5111473;28;20395;-82
2023/05/19 09:16:38;;;;;;;2.70;2.10;;;15.60;1.00;;;;;;5090669;28;20392;-81
2023/05/19 09:19:03;;;;;;;3.03;1.93;;;15.80;1.00;;;;;;5081726;28;20386;-81
2023/05/19 09:21:30;;;;;;;2.20;1.90;;;16.30;1.00;;;;;;5078193;28;20417;-81
2023/05/19 09:23:57;;;;;;;2.60;2.13;;;16.40;1.00;;;;;;5078480;28;20419;-80
2023/05/19 09:26:23;;;;;;;2.03;1.77;;;16.20;1.00;;;;;;5099031;28;20390;-80
2023/05/19 09:28:48;;;;;;;2.30;2.10;;;16.20;1.00;;;;;;5083930;28;20769;-81
2023/05/19 09:31:14;;;;;;;3.70;2.00;;;16.20;1.00;;;;;;5097063;28;20402;-81
2023/05/19 09:33:41;;;;;;;1.75;1.60;;;16.40;1.00;;;;;;5078980;28;20474;-81
2023/05/19 09:36:07;;;;;;;2.10;1.90;;;16.50;1.00;;;;;;5091600;28;20806;-81
2023/05/19 09:38:34;;;;;;;3.10;1.70;;;16.60;1.00;;;;;;5080809;28;20392;-81
2023/05/19 09:41:00;;;;;;;2.97;1.80;;;16.60;1.00;;;;;;5060389;28;20395;-80
2023/05/19 09:43:31;;;;;;;1.80;1.70;;;16.70;1.00;;;;;;5058283;28;20415;-80
2023/05/19 09:46:03;;;;;;;1.90;1.70;;;16.70;1.00;;;;;;5058114;28;20431;-81
2023/05/19 09:48:29;;;;;;;1.80;1.70;;;17.40;1.00;;;;;;5091887;28;20481;-81
2023/05/19 09:50:56;;;;;;;2.88;1.70;;;17.80;1.00;;;;;;5098820;28;20479;-80
2023/05/19 09:53:22;;;;;;;2.43;1.80;;;18.00;1.00;;;;;;5085390;28;20478;-82
2023/05/19 09:55:49;;;;;;;2.10;1.90;;;18.00;1.00;;;;;;5084605;28;20437;-81
2023/05/19 09:58:17;;;;;;;1.87;1.77;;;18.10;1.00;;;;;;5098227;28;20386;-82
2023/05/19 10:00:43;;;;;;;6.00;2.20;;;18.30;1.00;;;;;;5085760;28;20382;-82
2023/05/19 10:03:10;;;;;;;2.67;1.90;;;18.10;1.00;;;;;;5107819;28;20382;-81
2023/05/19 10:05:37;;;;;;;5.00;2.08;;;18.10;1.00;;;;;;5087352;28;20398;-82
2023/05/19 10:08:05;;;;;;;1.90;1.70;;;18.30;1.00;;;;;;5097510;28;20461;-82
2023/05/19 10:10:32;;;;;;;2.10;1.80;;;18.10;1.00;;;;;;5137832;22;20415;-81
2023/05/19 10:12:59;;;;;;;1.80;1.70;;;18.10;1.00;;;;;;5112137;28;20376;-82
2023/05/19 10:15:25;;;;;;;2.47;1.90;;;18.10;1.00;;;;;;5101090;28;20384;-82
2023/05/19 10:17:51;;;;;;;2.90;1.80;;;18.10;1.00;;;;;;5120341;28;20455;-82
2023/05/19 10:20:17;;;;;;;2.20;1.70;;;18.10;1.00;;;;;;5102474;28;20373;-82
2023/05/19 10:22:44;;;;;;;3.15;1.85;;;17.80;1.00;;;;;;5120411;28;20384;-82
2023/05/19 10:25:13;;;;;;;2.85;2.05;;;17.50;1.00;;;;;;5105895;28;20393;-82
2023/05/19 10:27:55;;;;;;;2.70;1.80;;;17.50;1.00;;;;;;5105851;28;20479;-82
2023/05/19 10:30:38;;;;;;;2.90;1.98;;;17.40;1.00;;;;;;5105534;28;20400;-82
2023/05/19 10:33:08;;;;;;;2.75;2.30;;;17.40;1.00;;;;;;5124897;28;20380;-82
2023/05/19 10:35:50;;;;;;;2.35;1.92;;;16.90;1.00;;;;;;5132686;28;20377;-82
2023/05/19 10:38:32;;;;;;;2.60;1.70;;;17.20;1.00;;;;;;5106717;28;20399;-82
2023/05/19 10:41:21;;;;;;;2.80;1.80;;;17.30;1.00;;;;;;5083645;28;20422;-82
2023/05/19 10:43:58;;;;;;;3.10;2.40;;;17.00;1.00;;;;;;5100612;28;20915;-83
2023/05/19 10:46:28;;;;;;;2.85;2.40;;;17.00;1.00;;;;;;5099345;28;20379;-83
2023/05/19 10:48:54;;;;;;;3.23;2.50;;;17.00;1.00;;;;;;5099440;28;20390;-83
2023/05/19 10:51:20;;;;;;;2.90;2.60;;;17.30;1.00;;;;;;5081291;28;20398;-83
2023/05/19 10:53:46;;;;;;;3.07;2.40;;;17.30;1.00;;;;;;5078803;28;20587;-82
2023/05/19 10:56:35;;;;;;;2.60;2.40;;;16.90;1.00;;;;;;5098109;28;20383;-83
2023/05/19 10:59:02;;;;;;;4.53;2.55;;;17.20;1.00;;;;;;5081082;28;20390;-82
2023/05/19 11:01:34;;;;;;;3.53;2.00;;;17.20;1.00;;;;;;5098748;28;20386;-82
2023/05/19 11:04:05;;;;;;;3.92;2.40;;;16.90;1.00;;;;;;5079810;28;20390;-82
2023/05/19 11:06:34;;;;;;;3.47;2.70;;;16.50;1.00;;;;;;5097506;28;20386;-82
2023/05/19 11:09:11;;;;;;;2.65;2.00;;;16.70;1.00;;;;;;5097331;28;21068;-82
2023/05/19 11:11:53;;;;;;;2.90;2.58;;;16.90;1.00;;;;;;5077534;28;20765;-82
2023/05/19 11:14:25;;;;;;;3.70;2.30;;;16.90;1.00;;;;;;5078491;28;20390;-83
2023/05/19 11:16:55;;;;;;;3.03;2.67;;;16.80;1.00;;;;;;5108532;28;20820;-82
2023/05/19 11:19:33;;;;;;;2.70;2.40;;;16.90;1.00;;;;;;5100210;28;20738;-83
2023/05/19 11:22:09;;;;;;;3.92;2.40;;;17.30;1.00;;;;;;5118558;28;20388;-82
2023/05/19 11:24:35;;;;;;;2.40;2.17;;;17.50;1.00;;;;;;5118932;28;20753;-83
2023/05/19 11:27:24;;;;;;;2.60;2.40;;;18.10;1.00;;;;;;5087729;28;20425;-82
2023/05/19 11:29:50;;;;;;;3.50;2.40;;;18.20;1.00;;;;;;5063610;28;20491;-83
2023/05/19 11:32:18;;;;;;;3.83;2.40;;;18.10;1.00;;;;;;5058660;28;20383;-83
2023/05/19 11:34:44;;;;;;;4.60;2.30;;;18.00;1.00;;;;;;5058091;28;20445;-82
2023/05/19 11:37:10;;;;;;;6.10;2.60;;;17.70;1.00;;;;;;5056741;28;20418;-83
2023/05/19 11:39:38;;;;;;;2.88;2.33;;;17.20;1.00;;;;;;5108424;28;20384;-82
2023/05/19 11:42:03;;;;;;;3.63;2.40;;;16.90;1.00;;;;;;5099662;28;20746;-82
2023/05/19 11:44:30;;;;;;;3.10;2.40;;;17.10;1.00;;;;;;5102121;28;20463;-83
2023/05/19 11:46:57;;;;;;;2.97;1.93;;;17.40;1.00;;;;;;5088687;28;20391;-83
2023/05/19 11:49:22;;;;;;;2.70;1.70;;;17.50;1.00;;;;;;5098001;28;20386;-83
2023/05/19 11:51:48;;;;;;;2.97;2.67;;;17.70;1.00;;;;;;5078973;28;20397;-82
2023/05/19 11:54:14;;;;;;;3.88;2.40;;;17.40;1.00;;;;;;5097528;28;20378;-83
2023/05/19 11:56:40;;;;;;;3.73;2.30;;;17.10;1.00;;;;;;5079103;28;20889;-83
2023/05/19 11:59:07;;;;;;;4.30;2.58;;;17.30;1.00;;;;;;5093833;28;20416;-82
2023/05/19 12:01:34;;;;;;;3.23;2.20;;;17.40;1.00;;;;;;5094751;28;20398;-82
2023/05/19 12:04:00;;;;;;;2.95;2.53;;;17.50;1.00;;;;;;5098528;28;20392;-82
2023/05/19 12:06:27;;;;;;;4.30;2.95;;;17.50;1.00;;;;;;5095646;28;20386;-81
2023/05/19 12:08:56;;;;;;;4.20;3.80;;;17.30;1.00;;;;;;5088685;28;20372;-81
2023/05/19 12:11:23;;;;;;;3.85;2.13;;;17.50;1.00;;;;;;5116934;28;20408;-81
2023/05/19 12:13:53;;;;;;;2.70;2.50;;;17.60;1.00;;;;;;5103859;28;20389;-81
2023/05/19 12:16:21;;;;;;;3.13;2.40;;;17.40;1.00;;;;;;5086135;28;20382;-82
2023/05/19 12:18:47;;;;;;;4.35;2.40;;;17.10;1.00;;;;;;5106092;28;20390;-82
2023/05/19 12:21:13;;;;;;;3.70;2.80;;;17.20;1.00;;;;;;5106221;28;20386;-82
2023/05/19 12:23:40;;;;;;;3.70;2.65;;;17.10;1.00;;;;;;5104657;28;20751;-82
2023/05/19 12:26:06;;;;;;;3.35;2.25;;;17.00;1.00;;;;;;5101839;28;20370;-82
2023/05/19 12:28:31;;;;;;;4.20;2.40;;;17.30;1.00;;;;;;5110199;28;20388;-81
2023/05/19 12:30:57;;;;;;;2.92;2.10;;;17.20;1.00;;;;;;5104888;28;20428;-82
2023/05/19 12:33:23;;;;;;;2.80;2.40;;;17.50;1.00;;;;;;5081700;28;20404;-81
2023/05/19 12:35:50;;;;;;;3.35;2.42;;;17.60;1.00;;;;;;5124062;28;20380;-81
2023/05/19 12:38:15;;;;;;;4.38;2.70;;;17.50;1.00;;;;;;5116253;28;20407;-82
2023/05/19 12:40:42;;;;;;;4.13;2.75;;;17.50;1.00;;;;;;5110204;28;20434;-81
2023/05/19 12:43:18;;;;;;;3.00;2.40;;;17.80;1.00;;;;;;5103272;28;20377;-82
2023/05/19 12:45:44;;;;;;;2.60;2.40;;;18.00;1.00;;;;;;5096629;28;20389;-82
2023/05/19 12:48:16;;;;;;;3.92;2.60;;;17.50;1.00;;;;;;5093460;28;20373;-81
2023/05/19 12:50:45;;;;;;;3.17;2.20;;;17.50;1.00;;;;;;5058722;28;20410;-81
2023/05/19 12:53:12;;;;;;;3.80;2.50;;;17.80;1.00;;;;;;5071558;28;20435;-82
2023/05/19 12:55:41;;;;;;;3.20;2.57;;;17.80;1.00;;;;;;5090878;28;20382;-82